Time;durP1;ratioP1;P1;durP2;ratioP2;P2;SDS_P1;SDS_P2;PMS_P1;PMS_P2;Temp;Humidity;BMP_temperature;BMP_pressure;BME280_temperature;BME280_humidity;BME280_pressure;Samples;Min_cycle;Max_cycle;Signal;HPM_P1;HPM_P2
2023/01/20 00:03:07;;;;;;;27.02;11.43;;;;;;;0.21;100.00;99196.16;12187168;19;20006;-81
2023/01/20 00:07:08;;;;;;;25.30;10.48;;;;;;;0.17;100.00;99205.72;12204132;19;20088;-81
2023/01/20 00:11:11;;;;;;;26.15;10.95;;;;;;;0.13;100.00;99204.44;12210775;19;20027;-81
2023/01/20 00:15:13;;;;;;;21.58;10.35;;;;;;;0.12;100.00;99205.47;12184966;19;20026;-81
2023/01/20 00:19:15;;;;;;;27.33;11.00;;;;;;;0.10;100.00;99202.97;12205980;19;20099;-81
2023/01/20 00:23:17;;;;;;;26.73;10.32;;;;;;;0.09;100.00;99212.13;12205757;19;20082;-81
2023/01/20 00:27:18;;;;;;;25.10;10.38;;;;;;;0.06;100.00;99212.53;12184686;19;20047;-81
2023/01/20 00:31:23;;;;;;;25.67;10.33;;;;;;;0.04;100.00;99213.75;12205872;19;20088;-81
2023/01/20 00:35:25;;;;;;;23.92;11.10;;;;;;;0.00;100.00;99229.56;12215657;19;20607;-81
2023/01/20 00:39:26;;;;;;;21.55;10.18;;;;;;;-0.03;100.00;99219.09;12184127;19;21223;-81
2023/01/20 00:43:28;;;;;;;24.60;10.18;;;;;;;-0.02;100.00;99235.16;12200999;19;20003;-81
2023/01/20 00:47:29;;;;;;;22.77;10.18;;;;;;;-0.06;100.00;99236.59;12200705;19;20033;-81
2023/01/20 00:51:31;;;;;;;24.00;10.77;;;;;;;-0.11;100.00;99235.50;12181508;19;20010;-81
2023/01/20 00:55:33;;;;;;;24.63;11.27;;;;;;;-0.13;100.00;99251.94;12203222;19;20006;-80
2023/01/20 00:59:34;;;;;;;32.53;12.38;;;;;;;-0.15;100.00;99261.28;12203391;19;20394;-82
2023/01/20 01:03:36;;;;;;;26.55;11.30;;;;;;;-0.15;100.00;99264.84;12184433;19;20039;-82
2023/01/20 01:07:37;;;;;;;23.38;11.30;;;;;;;-0.17;100.00;99266.91;12196125;19;20010;-80
2023/01/20 01:11:39;;;;;;;27.55;11.13;;;;;;;-0.22;100.00;99258.53;12200825;19;20077;-82
2023/01/20 01:15:56;;;;;;;22.75;9.93;;;;;;;-0.23;100.00;99278.53;12181023;19;20023;-80
2023/01/20 01:19:57;;;;;;;27.40;11.10;;;;;;;-0.25;100.00;99280.56;12204340;19;20011;-80
2023/01/20 01:23:59;;;;;;;24.98;12.18;;;;;;;-0.26;100.00;99278.91;12190020;19;20007;-80
2023/01/20 01:28:01;;;;;;;26.00;11.15;;;;;;;-0.26;100.00;99289.72;12201974;19;20026;-79
2023/01/20 01:32:03;;;;;;;24.23;10.70;;;;;;;-0.27;100.00;99299.72;12201872;19;20042;-79
2023/01/20 01:36:07;;;;;;;20.77;10.02;;;;;;;-0.30;100.00;99293.84;12176146;19;20015;-81
2023/01/20 01:40:09;;;;;;;26.63;10.50;;;;;;;-0.36;100.00;99295.44;12195139;19;19998;-80
2023/01/20 01:44:12;;;;;;;25.52;11.55;;;;;;;-0.39;100.00;99301.25;12199787;19;20076;-80
2023/01/20 01:48:15;;;;;;;23.75;11.00;;;;;;;-0.40;100.00;99296.03;12174129;19;20033;-80
2023/01/20 01:52:17;;;;;;;29.75;11.00;;;;;;;-0.42;100.00;99295.38;12200397;19;20009;-80
2023/01/20 01:56:21;;;;;;;23.13;10.77;;;;;;;-0.44;100.00;99292.88;12190531;19;20379;-80
2023/01/20 02:00:23;;;;;;;24.80;10.15;;;;;;;-0.47;100.00;99304.91;12173897;19;20752;-79
2023/01/20 02:04:27;;;;;;;27.17;11.07;;;;;;;-0.48;100.00;99305.09;12199491;19;20028;-79
2023/01/20 02:08:28;;;;;;;27.40;11.48;;;;;;;-0.49;100.00;99308.84;12195530;19;20042;-80
2023/01/20 02:12:30;;;;;;;27.60;11.75;;;;;;;-0.52;100.00;99310.06;12174580;19;20011;-80
2023/01/20 02:16:43;;;;;;;25.00;11.57;;;;;;;-0.54;100.00;99309.41;12201923;19;20031;-80
2023/01/20 02:21:16;;;;;;;24.30;10.75;;;;;;;-0.54;100.00;99308.56;12227244;19;20010;-80
2023/01/20 02:25:34;;;;;;;26.48;12.13;;;;;;;-0.53;100.00;99315.69;12233825;19;20006;-80
2023/01/20 02:30:09;;;;;;;26.83;12.05;;;;;;;-0.50;100.00;99324.25;12202121;19;20030;-81
2023/01/20 02:34:21;;;;;;;23.92;11.23;;;;;;;-0.43;100.00;99326.19;12177685;19;20003;-81
2023/01/20 02:38:59;;;;;;;30.25;12.20;;;;;;;-0.40;100.00;99337.47;12208406;19;20725;-81
2023/01/20 02:48:33;;;;;;;24.95;12.68;;;;;;;-0.22;100.00;99347.88;12198918;19;20017;-81
2023/01/20 02:52:40;;;;;;;29.27;12.77;;;;;;;-0.06;100.00;99347.66;12219631;19;20006;-81
2023/01/20 02:56:42;;;;;;;30.80;12.23;;;;;;;0.08;100.00;99354.03;12218802;19;20010;-80
2023/01/20 03:00:48;;;;;;;34.00;13.82;;;;;;;0.19;100.00;99358.09;12199211;19;20006;-81
2023/01/20 03:05:16;;;;;;;27.98;12.73;;;;;;;0.24;100.00;99361.06;12217757;19;20011;-81
2023/01/20 03:09:23;;;;;;;24.10;12.38;;;;;;;0.21;100.00;99358.75;12197537;19;20117;-81
2023/01/20 03:13:32;;;;;;;26.63;12.00;;;;;;;0.18;100.00;99375.41;12218143;19;20007;-81
2023/01/20 03:17:34;;;;;;;24.77;12.00;;;;;;;0.14;100.00;99377.63;12221595;19;20026;-79
2023/01/20 03:21:36;;;;;;;25.33;12.38;;;;;;;0.12;100.00;99374.28;12187603;19;20360;-81
2023/01/20 03:25:39;;;;;;;24.17;12.10;;;;;;;0.09;100.00;99376.53;12213080;19;20017;-81
2023/01/20 03:29:40;;;;;;;27.15;12.73;;;;;;;0.08;100.00;99389.25;12212794;19;20760;-81
2023/01/20 03:33:45;;;;;;;29.95;12.40;;;;;;;0.07;100.00;99387.56;12189908;19;20014;-80
2023/01/20 03:37:47;;;;;;;27.98;12.50;;;;;;;0.07;100.00;99393.00;12210905;19;20018;-80
2023/01/20 03:41:55;;;;;;;26.42;12.70;;;;;;;0.02;100.00;99392.72;12219295;19;20087;-81
2023/01/20 03:46:05;;;;;;;26.38;12.52;;;;;;;-0.02;100.00;99399.56;12190881;19;20090;-80
2023/01/20 03:50:23;;;;;;;23.73;11.82;;;;;;;-0.07;100.00;99408.25;12207979;19;20006;-80
2023/01/20 03:54:32;;;;;;;28.02;11.90;;;;;;;-0.07;100.00;99407.41;12188106;19;20015;-80
2023/01/20 03:58:40;;;;;;;24.83;12.32;;;;;;;-0.11;100.00;99406.97;12209669;19;19999;-80
2023/01/20 04:02:42;;;;;;;26.52;11.35;;;;;;;-0.14;100.00;99410.06;12210328;19;20011;-80
2023/01/20 04:06:46;;;;;;;26.95;12.60;;;;;;;-0.19;100.00;99415.19;12185356;19;20027;-80
2023/01/20 04:10:49;;;;;;;26.63;12.00;;;;;;;-0.21;100.00;99416.41;12207780;19;20031;-80
2023/01/20 04:14:51;;;;;;;25.98;13.15;;;;;;;-0.20;100.00;99418.09;12207115;19;20006;-81
2023/01/20 04:18:53;;;;;;;27.35;12.30;;;;;;;-0.21;100.00;99425.38;12185360;19;20034;-80
2023/01/20 04:22:57;;;;;;;26.15;12.07;;;;;;;-0.23;100.00;99427.44;12206193;19;20353;-80
2023/01/20 04:26:58;;;;;;;29.25;12.60;;;;;;;-0.28;100.00;99435.28;12210857;19;20031;-79
2023/01/20 04:31:00;;;;;;;25.45;11.80;;;;;;;-0.34;100.00;99442.28;12186065;19;20010;-80
2023/01/20 04:35:02;;;;;;;29.15;14.30;;;;;;;-0.42;100.00;99441.56;12209601;19;20006;-80
2023/01/20 04:39:03;;;;;;;22.95;11.88;;;;;;;-0.48;100.00;99443.13;12188871;19;20038;-80
2023/01/20 04:43:05;;;;;;;26.02;12.18;;;;;;;-0.55;100.00;99440.34;12208821;19;20022;-81
2023/01/20 04:47:07;;;;;;;24.58;12.35;;;;;;;-0.64;100.00;99443.34;12212097;19;20033;-81
2023/01/20 04:51:08;;;;;;;26.77;11.77;;;;;;;-0.71;100.00;99451.38;12198527;19;20010;-80
2023/01/20 04:55:10;;;;;;;26.40;11.65;;;;;;;-0.74;100.00;99459.88;12274956;19;20014;-81
2023/01/20 04:59:12;;;;;;;28.77;12.77;;;;;;;-0.77;100.00;99458.38;12267998;19;20039;-81
2023/01/20 05:03:14;;;;;;;26.40;11.70;;;;;;;-0.81;100.00;99465.16;12201961;19;20008;-80
2023/01/20 05:07:16;;;;;;;29.92;14.05;;;;;;;-0.85;100.00;99474.66;12208044;19;20064;-80
2023/01/20 05:11:18;;;;;;;25.70;12.05;;;;;;;-0.86;100.00;99474.84;12203880;19;20017;-81
2023/01/20 05:15:19;;;;;;;25.92;12.23;;;;;;;-0.86;100.00;99472.13;12181113;19;20017;-81
2023/01/20 05:19:21;;;;;;;30.48;12.25;;;;;;;-0.89;100.00;99475.22;12202515;19;20002;-80
2023/01/20 05:23:22;;;;;;;25.63;11.45;;;;;;;-0.92;100.00;99479.16;12203786;19;20341;-80
2023/01/20 05:27:25;;;;;;;25.95;12.45;;;;;;;-0.97;100.00;99479.69;12178155;19;20022;-80
2023/01/20 05:31:26;;;;;;;23.05;12.27;;;;;;;-1.00;100.00;99490.88;12204850;19;20011;-81
2023/01/20 05:35:28;;;;;;;28.98;12.38;;;;;;;-1.01;100.00;99494.59;12200559;19;20021;-80
2023/01/20 05:39:29;;;;;;;33.20;14.05;;;;;;;-1.01;100.00;99501.84;12187454;19;20353;-80
2023/01/20 05:43:31;;;;;;;28.67;13.23;;;;;;;-1.04;100.00;99502.22;12200153;19;20423;-82
2023/01/20 05:47:33;;;;;;;28.97;13.60;;;;;;;-1.04;100.00;99510.34;12194171;19;20036;-81
2023/01/20 05:51:35;;;;;;;30.52;12.98;;;;;;;-1.03;100.00;99514.75;12166360;19;20260;-82
2023/01/20 05:55:36;;;;;;;32.75;13.50;;;;;;;-1.04;100.00;99516.63;12190294;19;20069;-82
2023/01/20 05:59:38;;;;;;;29.92;13.05;;;;;;;-1.07;100.00;99526.94;12209435;19;20007;-82
2023/01/20 06:03:40;;;;;;;29.95;12.73;;;;;;;-1.08;100.00;99523.38;12179623;19;20014;-82
2023/01/20 06:07:42;;;;;;;33.25;13.38;;;;;;;-1.07;100.00;99533.19;12204182;19;20034;-85
2023/01/20 06:11:44;;;;;;;25.27;12.70;;;;;;;-1.02;100.00;99532.63;12221778;19;20002;-82
2023/01/20 06:15:53;;;;;;;29.55;13.77;;;;;;;-1.04;100.00;99545.50;12212254;19;20255;-82
2023/01/20 06:19:55;;;;;;;31.08;13.40;;;;;;;-1.01;100.00;99545.13;12230635;19;20006;-82
2023/01/20 06:23:57;;;;;;;32.03;12.98;;;;;;;-0.97;100.00;99544.59;12230024;19;20013;-82
2023/01/20 06:27:59;;;;;;;28.92;13.05;;;;;;;-0.86;100.00;99551.44;12204484;19;20010;-82
2023/01/20 06:32:00;;;;;;;24.92;12.23;;;;;;;-0.73;100.00;99561.63;12227364;19;21399;-82
2023/01/20 06:36:03;;;;;;;29.97;13.27;;;;;;;-0.62;100.00;99566.63;12219132;19;20317;-82
2023/01/20 06:40:05;;;;;;;21.95;10.95;;;;;;;-0.62;100.00;99563.91;12226024;19;20006;-82
2023/01/20 06:44:06;;;;;;;30.03;15.17;;;;;;;-0.61;100.00;99571.00;12212195;19;20016;-82
2023/01/20 06:48:08;;;;;;;24.27;11.73;;;;;;;-0.54;100.00;99574.63;12231189;19;20259;-82
2023/01/20 06:52:10;;;;;;;27.83;13.87;;;;;;;-0.44;100.00;99579.81;12240285;19;20028;-82
2023/01/20 06:56:13;;;;;;;22.70;11.20;;;;;;;-0.36;100.00;99587.00;12225285;19;20052;-83
2023/01/20 07:00:22;;;;;;;25.55;12.82;;;;;;;-0.28;100.00;99595.88;12289842;19;20027;-81
2023/01/20 07:04:23;;;;;;;26.95;12.50;;;;;;;-0.19;100.00;99599.34;12243676;19;20347;-82
2023/01/20 07:08:25;;;;;;;28.73;11.70;;;;;;;-0.11;100.00;99595.72;12206305;19;20026;-84
2023/01/20 07:12:27;;;;;;;27.13;12.97;;;;;;;-0.03;100.00;99612.72;12233930;19;20006;-84
2023/01/20 07:16:29;;;;;;;24.13;12.53;;;;;;;-0.02;100.00;99614.38;12233821;19;20823;-83
2023/01/20 07:20:31;;;;;;;24.48;12.43;;;;;;;0.06;100.00;99628.84;12210531;19;20027;-83
2023/01/20 07:24:33;;;;;;;25.42;12.95;;;;;;;0.10;100.00;99636.44;12219578;19;20054;-83
2023/01/20 07:28:36;;;;;;;33.50;13.50;;;;;;;0.15;100.00;99630.44;12218194;19;20010;-83
2023/01/20 07:32:37;;;;;;;28.90;13.35;;;;;;;0.23;100.00;99633.91;12194039;19;20025;-83
2023/01/20 07:36:39;;;;;;;28.83;12.85;;;;;;;0.27;100.00;99639.81;12215729;19;20011;-84
2023/01/20 07:40:41;;;;;;;27.98;14.32;;;;;;;0.34;100.00;99643.44;12219271;19;20002;-84
2023/01/20 07:44:42;;;;;;;25.83;12.15;;;;;;;0.43;100.00;99642.31;12191875;19;20098;-83
2023/01/20 07:48:44;;;;;;;26.40;12.90;;;;;;;0.55;100.00;99644.56;12214540;19;20089;-83
2023/01/20 07:52:46;;;;;;;27.10;13.57;;;;;;;0.62;100.00;99640.03;12219106;19;20030;-84
2023/01/20 07:56:47;;;;;;;27.17;12.88;;;;;;;0.70;100.00;99639.94;12197544;19;20007;-84
2023/01/20 08:00:49;;;;;;;28.48;13.63;;;;;;;0.79;100.00;99646.94;12218114;19;20085;-83
2023/01/20 08:04:50;;;;;;;26.20;12.40;;;;;;;0.88;100.00;99653.91;12200934;19;20018;-83
2023/01/20 08:08:53;;;;;;;29.58;13.48;;;;;;;0.96;100.00;99657.56;12211480;19;20010;-83
2023/01/20 08:12:58;;;;;;;25.08;12.10;;;;;;;1.09;100.00;99668.56;12212189;19;20031;-83
2023/01/20 08:17:00;;;;;;;33.20;13.60;;;;;;;1.13;100.00;99667.13;12187864;19;20100;-83
2023/01/20 08:21:05;;;;;;;29.03;13.50;;;;;;;1.21;100.00;99668.91;12212632;19;20003;-83
2023/01/20 08:25:07;;;;;;;23.88;11.68;;;;;;;1.29;100.00;99675.03;12211465;19;20020;-84
2023/01/20 08:29:09;;;;;;;21.90;9.77;;;;;;;1.32;100.00;99674.66;12191275;19;20516;-83
2023/01/20 08:33:10;;;;;;;25.38;13.13;;;;;;;1.44;100.00;99682.28;12211004;19;20034;-83
2023/01/20 08:37:12;;;;;;;24.55;12.00;;;;;;;1.52;100.00;99687.59;12210997;19;20006;-84
2023/01/20 08:41:20;;;;;;;28.13;12.63;;;;;;;1.61;100.00;99686.44;12190232;19;20011;-84
2023/01/20 08:45:22;;;;;;;24.02;12.00;;;;;;;1.68;100.00;99690.03;12210336;19;20094;-83
2023/01/20 08:49:24;;;;;;;24.70;12.32;;;;;;;1.68;100.00;99702.78;12208769;19;20038;-83
2023/01/20 08:53:26;;;;;;;24.53;12.87;;;;;;;1.70;100.00;99695.28;12189888;19;20504;-83
2023/01/20 08:57:28;;;;;;;22.35;12.10;;;;;;;1.75;100.00;99703.66;12209069;19;20499;-84
2023/01/20 09:01:36;;;;;;;28.40;12.80;;;;;;;1.76;100.00;99713.53;12214908;19;20010;-84
2023/01/20 09:05:38;;;;;;;30.23;12.80;;;;;;;1.78;100.00;99717.69;12193502;19;20275;-84
2023/01/20 09:09:40;;;;;;;28.13;13.45;;;;;;;1.81;100.00;99720.06;12220064;19;20480;-84
2023/01/20 09:13:42;;;;;;;25.27;11.95;;;;;;;1.89;100.00;99729.94;12220500;19;20030;-84
2023/01/20 09:17:43;;;;;;;29.50;13.27;;;;;;;1.96;100.00;99724.53;12196684;19;20010;-84
2023/01/20 09:21:45;;;;;;;31.88;13.73;;;;;;;1.99;100.00;99735.88;12236078;19;20010;-84
2023/01/20 09:25:47;;;;;;;27.98;13.80;;;;;;;1.88;100.00;99730.97;12221183;19;20097;-84
2023/01/20 09:29:48;;;;;;;27.75;13.90;;;;;;;1.62;100.00;99728.84;12190600;19;20837;-83
2023/01/20 09:33:50;;;;;;;29.70;13.45;;;;;;;1.44;100.00;99731.16;12205827;19;19998;-83
2023/01/20 09:47:21;;;;;;;30.10;14.57;;;;;;;1.54;100.00;99751.53;12204014;19;20030;-84
2023/01/20 09:55:56;;;;;;;44.92;18.75;;;;;;;1.72;100.00;99761.09;12187899;19;20010;-83
2023/01/20 10:00:08;;;;;;;30.25;15.27;;;;;;;1.79;100.00;99760.16;12210309;19;20042;-83
2023/01/20 10:04:28;;;;;;;31.27;14.05;;;;;;;1.85;100.00;99760.41;12209567;19;21181;-83
2023/01/20 10:08:39;;;;;;;32.30;15.48;;;;;;;2.02;100.00;99775.41;12183098;19;20492;-84
2023/01/20 10:12:50;;;;;;;30.45;14.93;;;;;;;2.13;100.00;99772.16;12209582;19;20011;-81
2023/01/20 10:17:02;;;;;;;29.98;15.45;;;;;;;2.19;100.00;99779.53;12186896;19;20003;-84
2023/01/20 10:21:12;;;;;;;28.15;14.27;;;;;;;2.31;100.00;99776.28;12215044;19;20379;-83
2023/01/20 10:25:23;;;;;;;30.48;15.68;;;;;;;2.46;100.00;99768.84;12218393;19;20007;-82
2023/01/20 10:29:37;;;;;;;36.08;14.10;;;;;;;2.46;100.00;99780.56;12242956;19;20372;-82
2023/01/20 10:33:43;;;;;;;25.67;13.35;;;;;;;2.47;100.00;99781.44;12265056;19;20002;-85
2023/01/20 10:37:45;;;;;;;25.33;12.35;;;;;;;2.46;100.00;99774.28;12216629;19;20006;-84
2023/01/20 10:42:00;;;;;;;19.03;9.77;;;;;;;2.53;100.00;99771.63;12181922;19;20006;-84
2023/01/20 10:46:08;;;;;;;23.67;10.75;;;;;;;2.56;100.00;99768.50;12204140;19;20015;-84
2023/01/20 10:50:18;;;;;;;22.33;11.43;;;;;;;2.64;100.00;99760.19;12179384;19;20019;-84
2023/01/20 10:55:18;;;;;;;26.58;11.88;;;;;;;2.64;100.00;99757.47;12199457;19;20014;-85
2023/01/20 10:59:28;;;;;;;23.60;11.60;;;;;;;2.70;100.00;99762.94;12187756;19;20540;-85
2023/01/20 11:03:38;;;;;;;24.42;12.23;;;;;;;2.79;100.00;99760.91;12217469;19;20046;-85
2023/01/20 11:07:41;;;;;;;29.75;13.77;;;;;;;2.91;100.00;99758.47;12212961;19;20003;-85
2023/01/20 11:11:43;;;;;;;23.70;13.38;;;;;;;3.05;100.00;99752.03;12190754;19;20007;-85
2023/01/20 11:15:48;;;;;;;23.92;12.60;;;;;;;3.23;100.00;99762.38;12212105;19;20011;-86
2023/01/20 11:19:55;;;;;;;24.20;12.32;;;;;;;3.34;100.00;99758.25;12217379;19;20042;-86
2023/01/20 11:23:58;;;;;;;25.13;11.07;;;;;;;3.55;100.00;99763.53;12203223;19;20010;-85
2023/01/20 11:28:01;;;;;;;;;;;;;;;3.53;100.00;99765.63;12220143;19;20033;-85
2023/01/20 11:32:03;;;;;;;16.67;9.73;;;;;;;3.50;100.00;99765.19;12201595;19;19918;-85
2023/01/20 11:36:16;;;;;;;21.08;11.23;;;;;;;3.59;100.00;99770.25;12223485;19;20006;-86
2023/01/20 11:40:25;;;;;;;22.77;12.38;;;;;;;3.80;100.00;99774.69;12238836;19;20380;-87
2023/01/20 11:44:56;;;;;;;25.52;10.88;;;;;;;4.09;100.00;99776.22;12257195;19;20007;-88
2023/01/20 11:49:21;;;;;;;20.95;11.25;;;;;;;4.12;100.00;99777.69;12231526;19;20368;-82
2023/01/20 11:53:30;;;;;;;19.08;10.98;;;;;;;4.14;100.00;99774.78;12197867;19;20116;-82
2023/01/20 11:57:32;;;;;;;18.88;10.73;;;;;;;4.63;100.00;99771.59;12215597;19;20007;-87
2023/01/20 12:01:56;;;;;;;21.75;12.02;;;;;;;4.79;98.62;99783.97;12221247;19;20013;-86
2023/01/20 12:06:24;;;;;;;22.80;12.50;;;;;;;4.73;98.78;99768.41;12238310;19;20003;-86
2023/01/20 12:10:31;;;;;;;21.50;12.32;;;;;;;4.64;98.39;99777.88;12262049;19;20039;-87
2023/01/20 12:14:56;;;;;;;21.50;11.68;;;;;;;4.91;99.85;99768.59;12248426;19;20372;-86
2023/01/20 12:19:09;;;;;;;18.67;11.68;;;;;;;5.43;97.74;99768.63;12273481;19;20776;-87
2023/01/20 12:23:30;;;;;;;20.02;11.93;;;;;;;5.67;95.55;99772.50;12236158;19;20026;-86
2023/01/20 12:27:33;;;;;;;17.98;10.50;;;;;;;5.66;94.18;99773.56;12233082;19;20073;-85
2023/01/20 12:31:35;;;;;;;20.95;10.63;;;;;;;5.43;90.30;99783.13;12231176;19;20419;-84
2023/01/20 12:35:46;;;;;;;18.48;10.05;;;;;;;5.39;93.24;99776.41;12206729;19;20360;-84
2023/01/20 12:40:18;;;;;;;20.42;10.25;;;;;;;5.52;90.39;99778.25;12230401;19;20361;-84
2023/01/20 12:44:50;;;;;;;19.23;9.07;;;;;;;5.39;90.65;99770.13;12197517;19;20448;-83
2023/01/20 12:49:51;;;;;;;17.98;9.95;;;;;;;5.61;89.54;99778.81;12216601;19;20026;-85
2023/01/20 12:54:04;;;;;;;16.02;8.95;;;;;;;5.27;89.23;99775.41;12194145;19;20101;-84
2023/01/20 12:58:09;;;;;;;;;;;;;;;4.97;89.16;99781.41;12218422;19;20007;-84
2023/01/20 13:02:43;;;;;;;26.60;10.20;;;;;;;5.07;90.88;99791.88;12197670;19;20649;-83
2023/01/20 13:07:26;;;;;;;15.43;8.82;;;;;;;4.95;89.52;99796.31;12215219;19;20342;-83
2023/01/20 13:12:04;;;;;;;32.60;9.63;;;;;;;4.79;89.94;99798.44;12186576;19;20010;-83
2023/01/20 13:16:19;;;;;;;18.17;9.05;;;;;;;4.68;91.09;99800.97;12215746;19;20030;-83
2023/01/20 13:20:24;;;;;;;20.35;9.07;;;;;;;4.71;92.71;99811.47;12193527;19;20017;-84
2023/01/20 13:24:29;;;;;;;18.48;9.50;;;;;;;4.81;91.29;99820.06;12218251;19;20031;-83
2023/01/20 13:28:31;;;;;;;17.40;8.00;;;;;;;4.95;90.87;99819.00;12218286;19;20035;-84
2023/01/20 13:32:37;;;;;;;24.02;9.50;;;;;;;4.91;88.31;99814.19;12201447;19;20006;-84
2023/01/20 13:36:38;;;;;;;18.35;9.13;;;;;;;4.78;90.00;99818.59;12216886;19;20010;-84
2023/01/20 13:40:55;;;;;;;14.65;8.65;;;;;;;4.65;89.65;99812.31;12221373;19;21026;-84
2023/01/20 13:45:12;;;;;;;14.73;7.93;;;;;;;4.50;90.54;99813.38;12194020;19;20462;-84
2023/01/20 13:49:23;;;;;;;17.50;9.38;;;;;;;4.40;89.13;99810.22;12216513;19;20018;-83
2023/01/20 13:53:27;;;;;;;16.98;9.45;;;;;;;4.33;90.43;99807.50;12199808;19;20059;-83
2023/01/20 13:57:43;;;;;;;18.33;9.00;;;;;;;4.27;91.36;99805.59;12219868;19;20020;-83
2023/01/20 14:01:45;;;;;;;16.52;9.85;;;;;;;4.19;91.74;99804.97;12217731;19;20012;-83
2023/01/20 14:05:52;;;;;;;16.88;7.80;;;;;;;4.08;92.28;99801.81;12199345;19;20007;-83
2023/01/20 14:09:57;;;;;;;11.88;7.18;;;;;;;4.10;92.72;99810.63;12215942;19;20007;-84
2023/01/20 14:14:04;;;;;;;15.93;8.25;;;;;;;4.02;92.15;99815.44;12192843;19;20002;-83
2023/01/20 14:18:13;;;;;;;16.60;8.77;;;;;;;4.03;93.44;99819.84;12219051;19;20362;-84
2023/01/20 14:22:26;;;;;;;14.90;8.30;;;;;;;4.01;93.87;99813.75;12214115;19;20011;-82
2023/01/20 14:26:29;;;;;;;13.75;7.40;;;;;;;4.05;93.60;99820.50;12192533;19;20003;-83
2023/01/20 14:30:31;;;;;;;;;;;;;;;4.10;93.44;99815.22;12217253;19;20003;-83
2023/01/20 14:34:33;;;;;;;12.88;6.45;;;;;;;4.32;94.47;99807.72;12228367;19;19938;-83
2023/01/20 14:38:38;;;;;;;14.18;6.82;;;;;;;4.48;94.64;99810.00;12199960;19;20017;-80
2023/01/20 14:43:18;;;;;;;15.48;7.53;;;;;;;4.56;95.15;99823.44;12221803;19;20332;-81
2023/01/20 14:47:22;;;;;;;14.32;7.32;;;;;;;4.61;95.02;99821.97;12200536;19;20003;-82
2023/01/20 14:51:24;;;;;;;12.52;7.63;;;;;;;4.59;93.95;99826.81;12225532;19;20007;-82
2023/01/20 14:55:26;;;;;;;12.77;6.70;;;;;;;4.52;93.83;99826.78;12222824;19;20011;-82
2023/01/20 14:59:28;;;;;;;;;;;;;;;4.46;94.81;99835.81;12205490;19;20006;-81
2023/01/20 15:03:30;;;;;;;13.80;7.15;;;;;;;4.34;95.50;99839.19;12223443;19;19919;-85
2023/01/20 15:07:33;;;;;;;14.70;7.43;;;;;;;4.24;97.19;99835.19;12225311;19;20007;-81
2023/01/20 15:11:35;;;;;;;14.02;7.63;;;;;;;4.10;97.46;99840.63;12195681;19;20024;-82
2023/01/20 15:15:37;;;;;;;17.33;7.18;;;;;;;4.02;98.54;99846.28;12224153;19;20006;-82
2023/01/20 15:19:44;;;;;;;17.50;6.82;;;;;;;3.93;99.59;99841.22;12226222;19;20058;-80
2023/01/20 15:23:51;;;;;;;14.00;6.60;;;;;;;3.79;100.00;99845.78;12200836;19;20019;-81
2023/01/20 15:27:54;;;;;;;13.80;6.72;;;;;;;3.67;100.00;99853.72;12224608;19;20012;-80
2023/01/20 15:31:58;;;;;;;14.63;6.97;;;;;;;3.55;100.00;99852.63;12198742;19;20013;-82
2023/01/20 15:36:00;;;;;;;11.15;6.10;;;;;;;3.46;100.00;99862.00;12221514;19;20056;-82
2023/01/20 15:40:02;;;;;;;12.88;6.28;;;;;;;3.36;100.00;99860.50;12221366;19;20027;-82
2023/01/20 15:44:04;;;;;;;12.15;6.75;;;;;;;3.27;100.00;99863.56;12199318;19;20412;-82
2023/01/20 15:48:14;;;;;;;12.77;7.07;;;;;;;3.19;100.00;99864.59;12220538;19;20769;-83
2023/01/20 15:52:16;;;;;;;11.90;5.88;;;;;;;3.12;100.00;99867.28;12225002;19;20017;-83
2023/01/20 15:56:27;;;;;;;11.63;5.72;;;;;;;3.09;100.00;99869.53;12212399;19;20006;-83
2023/01/20 16:00:29;;;;;;;11.57;6.28;;;;;;;3.09;100.00;99884.00;12274405;19;20419;-83
2023/01/20 16:04:31;;;;;;;12.87;6.03;;;;;;;3.06;100.00;99878.94;12251489;19;20043;-82
2023/01/20 16:08:36;;;;;;;11.75;6.28;;;;;;;3.05;100.00;99877.28;12202633;19;20007;-82
2023/01/20 16:12:37;;;;;;;18.00;6.40;;;;;;;3.03;100.00;99884.78;12218227;19;20058;-80
2023/01/20 16:16:39;;;;;;;10.02;5.60;;;;;;;3.03;100.00;99886.69;12216026;19;20019;-81
2023/01/20 16:20:42;;;;;;;13.07;7.20;;;;;;;3.02;100.00;99885.00;12206743;19;20013;-82
2023/01/20 16:24:47;;;;;;;15.68;6.60;;;;;;;2.99;100.00;99880.78;12262149;19;20034;-83
2023/01/20 16:28:58;;;;;;;15.90;6.53;;;;;;;3.03;100.00;99882.06;12257621;19;20011;-82
2023/01/20 16:33:00;;;;;;;13.95;7.07;;;;;;;3.00;100.00;99890.63;12201635;19;20045;-82
2023/01/20 16:37:02;;;;;;;12.93;6.45;;;;;;;2.96;100.00;99894.81;12221812;19;20015;-83
2023/01/20 16:41:12;;;;;;;12.35;6.75;;;;;;;2.92;100.00;99901.69;12199232;19;20006;-83
2023/01/20 16:45:23;;;;;;;13.00;7.03;;;;;;;2.91;100.00;99910.88;12217007;19;20481;-82
2023/01/20 16:49:25;;;;;;;13.35;7.15;;;;;;;2.88;100.00;99905.84;12219558;19;20614;-82
2023/01/20 16:53:26;;;;;;;12.63;6.47;;;;;;;2.86;100.00;99906.03;12197239;19;20010;-82
2023/01/20 16:57:28;;;;;;;12.75;7.18;;;;;;;2.84;100.00;99907.28;12212855;19;20002;-83
2023/01/20 17:01:30;;;;;;;17.35;7.45;;;;;;;2.79;100.00;99912.47;12214781;19;20216;-83
2023/01/20 17:05:32;;;;;;;14.70;7.23;;;;;;;2.78;100.00;99919.78;12190910;19;20010;-82
2023/01/20 17:09:33;;;;;;;16.23;7.87;;;;;;;2.75;100.00;99922.91;12216718;19;20394;-82
2023/01/20 17:13:37;;;;;;;18.52;8.77;;;;;;;2.79;100.00;99928.78;12213818;19;20011;-83
2023/01/20 17:17:40;;;;;;;13.63;8.32;;;;;;;2.83;100.00;99938.25;12189381;19;20038;-81
2023/01/20 17:21:42;;;;;;;14.23;8.32;;;;;;;2.87;100.00;99945.81;12213533;19;20496;-84
2023/01/20 17:25:44;;;;;;;16.75;7.82;;;;;;;2.93;100.00;99952.38;12215162;19;20010;-83
2023/01/20 17:29:46;;;;;;;16.92;7.97;;;;;;;2.97;100.00;99949.06;12188703;19;20356;-81
2023/01/20 17:33:47;;;;;;;14.23;7.70;;;;;;;3.02;100.00;99950.34;12204142;19;20006;-82
2023/01/20 17:37:49;;;;;;;18.83;8.30;;;;;;;3.06;100.00;99962.50;12206454;19;20026;-84
2023/01/20 17:41:51;;;;;;;12.95;6.32;;;;;;;2.84;100.00;99969.88;12182972;19;20003;-82
2023/01/20 17:45:52;;;;;;;11.40;6.18;;;;;;;2.63;100.00;99979.72;12204678;19;20010;-82
2023/01/20 17:49:54;;;;;;;8.38;4.80;;;;;;;2.43;100.00;99984.13;12202289;19;20346;-81
2023/01/20 17:53:57;;;;;;;12.35;5.57;;;;;;;2.22;100.00;99995.81;12186204;19;20066;-82
2023/01/20 17:57:58;;;;;;;9.95;4.78;;;;;;;2.10;100.00;99991.91;12204383;19;20010;-82
2023/01/20 18:02:00;;;;;;;7.32;4.00;;;;;;;1.98;100.00;99997.81;12194191;19;20086;-82
2023/01/20 18:06:02;;;;;;;8.63;4.43;;;;;;;1.92;100.00;100001.28;12207093;19;20084;-82
2023/01/20 18:10:04;;;;;;;8.40;3.75;;;;;;;1.99;100.00;100001.38;12207025;19;20011;-85
2023/01/20 18:14:06;;;;;;;9.70;5.13;;;;;;;1.93;100.00;100008.41;12188523;19;20030;-84
2023/01/20 18:18:07;;;;;;;9.03;4.60;;;;;;;1.93;100.00;100018.44;12217045;19;20561;-83
2023/01/20 18:22:10;;;;;;;9.57;5.30;;;;;;;1.98;100.00;100014.13;12209846;19;20006;-84
2023/01/20 18:26:14;;;;;;;11.70;5.97;;;;;;;1.98;100.00;100021.44;12184952;19;20019;-81
2023/01/20 18:30:16;;;;;;;10.70;5.13;;;;;;;2.02;100.00;100025.44;12205630;19;20011;-81
2023/01/20 18:34:18;;;;;;;11.35;5.47;;;;;;;1.99;100.00;100017.66;12207670;19;20548;-81
2023/01/20 18:38:19;;;;;;;10.43;5.40;;;;;;;1.98;100.00;100019.56;12174962;19;20464;-81
2023/01/20 18:42:21;;;;;;;10.40;5.43;;;;;;;2.02;100.00;100025.44;12205632;19;20476;-80
2023/01/20 18:46:24;;;;;;;10.13;5.75;;;;;;;2.05;100.00;100023.22;12203954;19;20108;-80
2023/01/20 18:50:26;;;;;;;12.73;6.90;;;;;;;2.04;100.00;100026.13;12182708;19;20018;-81
2023/01/20 18:54:31;;;;;;;16.23;7.13;;;;;;;2.03;100.00;100029.88;12203631;19;20010;-80
2023/01/20 18:58:34;;;;;;;14.88;6.97;;;;;;;2.03;100.00;100024.44;12202141;19;20003;-80
2023/01/20 19:02:36;;;;;;;13.43;7.50;;;;;;;2.02;100.00;100028.16;12179088;19;20547;-81